Training

Spin Video     https://www.youtube.com/watch?v=Vj8vdWBMePM&list=UULpWoZCi_X3hPwW6J_RsFEg     … [Read More...]

Weather

METAR FOR KCHA (Issued: Wed, January 28th 2015 6:16 AM UTC):
KCHA 280616Z AUTO 34009KT 10SM OVC030 02/M04 A3018 RMK AO2 T00221044

Accomplishments

Congratulations

Congratulations Dr. John "Carter" Hemphil for successfully passing his instrument Checkride  Jan 10th 2015. … [Read More...]

Congratulations

Congratulation to Shane Loyd for completing his initial solo in N68810 on December 25, 2014.  Merry Christmas to Shane. … [Read More...]

Dallas Bay Skypark - 1A0